createdAt,value
2023-03-13T00:01:47.213Z,47.00
2023-03-13T00:04:15.376Z,43.80
2023-03-13T00:06:43.459Z,41.40
2023-03-13T00:09:13.936Z,37.20
2023-03-13T00:11:42.832Z,43.60
2023-03-13T00:14:10.996Z,40.40
2023-03-13T00:16:39.904Z,40.50
2023-03-13T00:19:08.962Z,38.60
2023-03-13T00:21:41.468Z,41.60
2023-03-13T00:24:12.480Z,44.50
2023-03-13T00:26:40.697Z,37.00
2023-03-13T00:29:08.779Z,38.80
2023-03-13T00:31:37.652Z,40.60
2023-03-13T00:34:05.857Z,39.50
2023-03-13T00:36:35.776Z,42.40
2023-03-13T00:39:06.086Z,46.50
2023-03-13T00:41:37.446Z,38.20
2023-03-13T00:44:07.193Z,46.10
2023-03-13T00:46:35.595Z,42.80
2023-03-13T00:49:04.191Z,47.30
2023-03-13T00:51:35.716Z,42.50
2023-03-13T00:54:04.960Z,41.30
2023-03-13T00:56:34.393Z,36.60
2023-03-13T00:59:03.012Z,34.10
2023-03-13T01:01:34.259Z,37.20
2023-03-13T01:04:06.055Z,39.80
2023-03-13T01:06:37.237Z,35.40
2023-03-13T01:09:07.198Z,29.50
2023-03-13T01:11:37.756Z,31.60
2023-03-13T01:14:09.565Z,35.40
2023-03-13T01:16:39.064Z,32.00
2023-03-13T01:19:13.663Z,27.40
2023-03-13T01:21:43.702Z,28.20
2023-03-13T01:24:12.000Z,26.40
2023-03-13T01:26:40.405Z,25.00
2023-03-13T01:29:08.795Z,23.40
2023-03-13T01:31:37.528Z,26.80
2023-03-13T01:34:08.664Z,28.30
2023-03-13T01:36:38.065Z,26.80
2023-03-13T01:39:06.246Z,26.30
2023-03-13T01:41:34.345Z,24.40
2023-03-13T01:44:02.553Z,21.20
2023-03-13T01:46:34.688Z,23.40
2023-03-13T01:49:25.237Z,19.30
2023-03-13T01:52:05.869Z,18.30
2023-03-13T01:54:43.024Z,21.70
2023-03-13T01:57:26.525Z,20.80
2023-03-13T02:00:08.545Z,21.50
2023-03-13T02:02:55.547Z,29.00
2023-03-13T02:05:26.671Z,26.30
2023-03-13T02:08:07.505Z,24.30
2023-03-13T02:10:45.049Z,26.20
2023-03-13T02:13:15.498Z,22.20
2023-03-13T02:15:44.936Z,21.50
2023-03-13T02:18:13.830Z,27.30
2023-03-13T02:20:42.217Z,23.50
2023-03-13T02:23:22.672Z,25.90
2023-03-13T02:25:53.664Z,19.50
2023-03-13T02:28:35.098Z,23.00
2023-03-13T02:31:06.503Z,27.00
2023-03-13T02:33:41.253Z,22.20
2023-03-13T02:36:14.297Z,21.00
2023-03-13T02:38:56.425Z,25.10
2023-03-13T02:43:56.022Z,24.20
2023-03-13T02:46:24.756Z,23.50
2023-03-13T02:48:57.195Z,20.80
2023-03-13T02:51:44.980Z,18.80
2023-03-13T02:54:19.374Z,21.30
2023-03-13T02:56:51.205Z,21.70
2023-03-13T02:59:19.368Z,23.70
2023-03-13T03:01:47.783Z,19.60
2023-03-13T03:04:15.884Z,21.10
2023-03-13T03:06:44.108Z,20.00
2023-03-13T03:09:12.366Z,20.70
2023-03-13T03:11:41.158Z,23.60
2023-03-13T03:14:13.715Z,21.00
2023-03-13T03:16:44.880Z,19.00
2023-03-13T03:19:13.199Z,19.30
2023-03-13T03:21:41.384Z,22.60
2023-03-13T03:24:09.518Z,23.40
2023-03-13T03:26:37.870Z,19.00
2023-03-13T03:29:12.210Z,20.90
2023-03-13T03:31:41.092Z,21.40
2023-03-13T03:34:10.470Z,23.40
2023-03-13T03:36:39.037Z,22.70
2023-03-13T03:39:07.308Z,24.90
2023-03-13T03:41:37.456Z,24.30
2023-03-13T03:44:06.767Z,21.20
2023-03-13T03:46:57.781Z,24.70
2023-03-13T03:49:27.331Z,24.90
2023-03-13T03:51:55.675Z,28.20
2023-03-13T03:54:29.425Z,22.80
2023-03-13T03:56:58.004Z,24.40
2023-03-13T03:59:26.357Z,21.50
2023-03-13T04:02:05.093Z,21.20
2023-03-13T04:04:34.170Z,25.40
2023-03-13T04:07:19.130Z,23.60
2023-03-13T04:09:47.455Z,26.10
2023-03-13T04:12:23.352Z,26.60
2023-03-13T04:14:54.072Z,26.70
2023-03-13T04:17:22.477Z,24.50
2023-03-13T04:19:50.663Z,24.10
2023-03-13T04:22:19.113Z,25.90
2023-03-13T04:24:51.776Z,23.50
2023-03-13T04:27:21.349Z,24.70
2023-03-13T04:29:50.210Z,22.70
2023-03-13T04:32:41.901Z,20.40
2023-03-13T04:35:10.310Z,21.90
2023-03-13T04:38:02.646Z,22.00
2023-03-13T04:40:56.811Z,19.90
2023-03-13T04:43:51.130Z,22.70
2023-03-13T04:46:48.838Z,25.70
2023-03-13T04:49:52.230Z,20.10
2023-03-13T04:52:52.451Z,24.40
2023-03-13T04:55:41.418Z,24.70
2023-03-13T04:58:38.008Z,23.70
2023-03-13T05:01:12.764Z,23.70
2023-03-13T05:04:11.427Z,25.30
2023-03-13T05:06:59.360Z,25.30
2023-03-13T05:09:33.507Z,26.70
2023-03-13T05:12:19.303Z,19.30
2023-03-13T05:15:07.580Z,23.90
2023-03-13T05:17:57.167Z,26.30
2023-03-13T05:20:50.596Z,23.60
2023-03-13T05:23:37.531Z,25.20
2023-03-13T05:26:22.564Z,22.40
2023-03-13T05:29:09.649Z,26.70
2023-03-13T05:31:50.153Z,23.00
2023-03-13T05:34:31.212Z,22.10
2023-03-13T05:36:59.292Z,25.60
2023-03-13T05:39:39.689Z,25.20
2023-03-13T05:42:22.546Z,21.40
2023-03-13T05:45:01.279Z,25.70
2023-03-13T05:47:48.199Z,22.40
2023-03-13T05:50:39.578Z,28.50
2023-03-13T05:53:22.443Z,26.50
2023-03-13T05:56:13.615Z,22.80
2023-03-13T05:58:59.177Z,25.20
2023-03-13T06:01:37.307Z,24.90
2023-03-13T06:04:13.909Z,27.70
2023-03-13T06:06:42.534Z,28.20
2023-03-13T06:09:11.871Z,30.00
2023-03-13T06:11:41.782Z,24.60
2023-03-13T06:14:10.315Z,27.70
2023-03-13T06:16:44.432Z,28.20
2023-03-13T06:19:24.529Z,22.60
2023-03-13T06:21:53.059Z,29.40
2023-03-13T06:24:21.086Z,25.00
2023-03-13T06:26:50.422Z,29.60
2023-03-13T06:29:18.743Z,27.20
2023-03-13T06:31:46.961Z,29.60
2023-03-13T06:34:15.362Z,30.90
2023-03-13T06:36:43.677Z,31.90
2023-03-13T06:39:12.744Z,31.20
2023-03-13T06:41:40.961Z,28.10
2023-03-13T06:44:08.981Z,33.70
2023-03-13T06:46:37.123Z,32.00
2023-03-13T06:49:06.394Z,32.20
2023-03-13T06:51:34.471Z,28.00
2023-03-13T06:54:03.518Z,34.90
2023-03-13T06:56:32.367Z,36.50
2023-03-13T06:59:00.741Z,35.10
2023-03-13T07:01:28.853Z,31.20
2023-03-13T07:03:57.145Z,30.20
2023-03-13T07:06:25.355Z,31.70
2023-03-13T07:08:53.567Z,27.40
2023-03-13T07:11:21.788Z,26.40
2023-03-13T07:13:49.824Z,30.70
2023-03-13T07:16:18.318Z,32.30
2023-03-13T07:18:46.405Z,32.20
2023-03-13T07:21:14.633Z,32.00
2023-03-13T07:23:42.729Z,30.20
2023-03-13T07:26:16.679Z,32.80
2023-03-13T07:28:44.826Z,27.60
2023-03-13T07:31:20.999Z,29.90
2023-03-13T07:33:49.803Z,32.20
2023-03-13T07:36:17.979Z,25.70
2023-03-13T07:38:49.998Z,28.40
2023-03-13T07:41:18.710Z,25.90
2023-03-13T07:43:46.847Z,26.80
2023-03-13T07:46:20.248Z,27.00
2023-03-13T07:48:49.197Z,28.90
2023-03-13T07:51:25.286Z,27.90
2023-03-13T07:53:58.685Z,25.00
2023-03-13T07:56:26.898Z,24.90
2023-03-13T07:58:54.946Z,21.60
2023-03-13T08:01:27.885Z,25.30
2023-03-13T08:03:58.863Z,21.20
2023-03-13T08:06:32.618Z,23.00
2023-03-13T08:09:02.106Z,23.50
2023-03-13T08:11:30.385Z,22.50
2023-03-13T08:13:58.626Z,22.00
2023-03-13T08:16:29.620Z,23.40
2023-03-13T08:18:58.880Z,26.00
2023-03-13T08:21:29.476Z,23.80
2023-03-13T08:23:59.974Z,25.20
2023-03-13T08:26:30.452Z,27.40
2023-03-13T08:29:01.982Z,29.00
2023-03-13T08:31:33.380Z,24.30
2023-03-13T08:34:01.551Z,29.90
2023-03-13T08:36:36.025Z,26.00
2023-03-13T08:39:16.268Z,27.80
2023-03-13T08:41:44.447Z,28.60
2023-03-13T08:44:15.196Z,28.20
2023-03-13T08:46:44.278Z,32.70
2023-03-13T08:49:13.449Z,25.90
2023-03-13T08:51:42.304Z,32.10
2023-03-13T08:54:10.833Z,34.30
2023-03-13T08:56:39.022Z,34.70
2023-03-13T08:59:07.237Z,29.40
2023-03-13T09:01:36.805Z,34.10
2023-03-13T09:04:05.563Z,29.70
2023-03-13T09:06:35.996Z,31.40
2023-03-13T09:09:05.882Z,31.20
2023-03-13T09:11:36.247Z,35.60
2023-03-13T09:14:04.387Z,35.40
2023-03-13T09:16:35.026Z,31.00
2023-03-13T09:19:03.166Z,32.10
2023-03-13T09:21:33.781Z,34.70
2023-03-13T09:24:02.404Z,33.40
2023-03-13T09:26:30.818Z,33.50
2023-03-13T09:28:59.117Z,35.20
2023-03-13T09:31:32.639Z,38.40
2023-03-13T09:34:01.309Z,36.30
2023-03-13T09:36:29.649Z,34.40
2023-03-13T09:38:59.552Z,34.70
2023-03-13T09:41:45.517Z,31.50
2023-03-13T09:44:20.038Z,33.00
2023-03-13T09:46:54.057Z,30.20
2023-03-13T09:49:37.930Z,34.60
2023-03-13T09:52:15.850Z,28.90
2023-03-13T09:54:50.122Z,33.30
2023-03-13T09:57:22.289Z,27.50
2023-03-13T10:00:21.980Z,29.90
2023-03-13T10:03:11.994Z,30.40
2023-03-13T10:05:46.583Z,27.30
2023-03-13T10:08:24.812Z,26.30
2023-03-13T10:11:11.783Z,26.60
2023-03-13T10:13:55.275Z,25.40
2023-03-13T10:16:26.655Z,26.00
2023-03-13T10:18:58.284Z,24.80
2023-03-13T10:21:34.174Z,25.30
2023-03-13T10:24:36.988Z,24.10
2023-03-13T10:27:05.087Z,23.70
2023-03-13T10:29:33.694Z,21.30
2023-03-13T10:32:05.183Z,20.30
2023-03-13T10:35:06.138Z,23.70
2023-03-13T10:37:43.965Z,22.10
2023-03-13T10:40:25.277Z,20.10
2023-03-13T10:43:01.402Z,17.50
2023-03-13T10:45:36.006Z,18.10
2023-03-13T10:48:13.046Z,18.90
2023-03-13T10:50:49.519Z,19.50
2023-03-13T10:53:20.299Z,16.40
2023-03-13T10:55:48.699Z,19.00
2023-03-13T10:58:35.506Z,15.10
2023-03-13T11:01:16.800Z,21.30
2023-03-13T11:03:46.738Z,17.80
2023-03-13T11:06:37.773Z,19.10
2023-03-13T11:09:16.405Z,17.40
2023-03-13T11:12:11.942Z,14.00
2023-03-13T11:14:40.936Z,15.30
2023-03-13T11:17:12.123Z,14.60
2023-03-13T11:20:01.108Z,13.60
2023-03-13T11:22:50.500Z,16.70
2023-03-13T11:25:39.437Z,13.90
2023-03-13T11:28:50.638Z,18.40
2023-03-13T11:31:42.553Z,14.30
2023-03-13T11:34:36.340Z,13.90
2023-03-13T11:37:15.385Z,15.60
2023-03-13T11:39:52.833Z,17.00
2023-03-13T11:42:42.880Z,12.60
2023-03-13T11:45:40.755Z,13.20
2023-03-13T11:48:20.829Z,13.40
2023-03-13T11:50:55.252Z,14.30
2023-03-13T11:53:26.513Z,14.00
2023-03-13T11:56:32.797Z,15.30
2023-03-13T11:59:24.916Z,19.40
2023-03-13T12:02:02.814Z,17.10
2023-03-13T12:04:37.141Z,13.50
2023-03-13T12:07:20.809Z,13.70
2023-03-13T12:10:03.112Z,11.60
2023-03-13T12:12:44.658Z,16.50
2023-03-13T12:15:28.095Z,13.90
2023-03-13T12:18:24.302Z,14.00
2023-03-13T12:21:12.438Z,14.90
2023-03-13T12:23:48.954Z,12.20
2023-03-13T12:26:21.043Z,14.50
2023-03-13T12:29:17.285Z,16.20
2023-03-13T12:32:04.564Z,13.70
2023-03-13T12:34:41.678Z,13.40
2023-03-13T12:37:20.143Z,12.80
2023-03-13T12:39:57.981Z,12.50
2023-03-13T12:42:40.135Z,18.30
2023-03-13T12:45:14.801Z,16.70
2023-03-13T12:48:04.676Z,14.60
2023-03-13T12:50:45.331Z,12.90
2023-03-13T12:54:10.370Z,18.20
2023-03-13T12:56:44.372Z,13.00
2023-03-13T12:59:15.236Z,10.90
2023-03-13T13:01:47.589Z,12.50
2023-03-13T13:07:03.268Z,13.30
2023-03-13T13:09:37.355Z,14.60
2023-03-13T13:12:14.778Z,10.60
2023-03-13T13:14:49.060Z,15.90
2023-03-13T13:17:39.150Z,12.90
2023-03-13T13:20:26.714Z,13.70
2023-03-13T13:22:55.219Z,10.70
2023-03-13T13:25:34.092Z,12.80
2023-03-13T13:28:35.361Z,10.20
2023-03-13T13:31:41.940Z,13.40
2023-03-13T13:34:30.910Z,10.00
2023-03-13T13:37:00.481Z,10.90
2023-03-13T13:39:40.542Z,10.00
2023-03-13T13:42:30.761Z,12.10
2023-03-13T13:45:01.807Z,12.00
2023-03-13T13:47:33.617Z,12.80
2023-03-13T13:52:41.847Z,10.40
2023-03-13T13:55:22.246Z,12.90
2023-03-13T13:57:59.320Z,11.00
2023-03-13T14:00:35.026Z,9.40
2023-03-13T14:03:03.751Z,11.50
2023-03-13T14:05:32.706Z,8.90
2023-03-13T14:08:08.802Z,10.60
2023-03-13T14:10:40.216Z,10.60
2023-03-13T14:13:17.278Z,9.90
2023-03-13T14:15:50.199Z,15.30
2023-03-13T14:18:21.095Z,15.30
2023-03-13T14:20:59.471Z,10.00
2023-03-13T14:23:42.296Z,10.30
2023-03-13T14:26:19.933Z,11.20
2023-03-13T14:29:03.801Z,13.20
2023-03-13T14:31:39.255Z,9.50
2023-03-13T14:34:11.858Z,11.10
2023-03-13T14:37:11.171Z,13.00
2023-03-13T14:39:48.863Z,9.30
2023-03-13T14:42:18.872Z,11.80
2023-03-13T14:44:50.601Z,9.90
2023-03-13T14:47:31.343Z,8.80
2023-03-13T14:50:12.619Z,13.50
2023-03-13T14:52:50.810Z,10.50
2023-03-13T14:55:22.237Z,8.30
2023-03-13T14:58:01.484Z,7.10
2023-03-13T15:00:40.774Z,10.30
2023-03-13T15:03:20.321Z,8.40
2023-03-13T15:06:05.509Z,10.10
2023-03-13T15:08:38.802Z,8.70
2023-03-13T15:11:34.145Z,11.20
2023-03-13T15:14:02.478Z,9.10
2023-03-13T15:16:30.774Z,8.30
2023-03-13T15:18:58.926Z,9.90
2023-03-13T15:21:33.476Z,7.80
2023-03-13T15:24:15.036Z,10.10
2023-03-13T15:26:43.674Z,6.20
2023-03-13T15:29:11.818Z,9.30
2023-03-13T15:31:40.291Z,9.20
2023-03-13T15:34:13.429Z,9.10
2023-03-13T15:36:42.770Z,9.90
2023-03-13T15:39:16.323Z,9.00
2023-03-13T15:41:44.479Z,11.10
2023-03-13T15:44:12.699Z,9.40
2023-03-13T15:46:40.998Z,9.60
2023-03-13T15:49:13.063Z,7.60
2023-03-13T15:51:41.412Z,7.90
2023-03-13T15:54:09.657Z,7.70
2023-03-13T15:56:39.145Z,8.30
2023-03-13T15:59:12.607Z,8.30
2023-03-13T16:01:41.622Z,8.00
2023-03-13T16:04:11.336Z,9.40
2023-03-13T16:06:40.048Z,7.30
2023-03-13T16:09:08.835Z,8.70
2023-03-13T16:11:36.966Z,10.80
2023-03-13T16:14:05.612Z,11.30
2023-03-13T16:16:37.674Z,9.50
2023-03-13T16:21:40.595Z,9.90
2023-03-13T16:24:09.007Z,9.00
2023-03-13T16:26:37.342Z,10.90
2023-03-13T16:29:05.888Z,7.00
2023-03-13T16:31:34.105Z,8.90
2023-03-13T16:34:03.564Z,9.90
2023-03-13T16:36:32.503Z,12.60
2023-03-13T16:39:04.316Z,8.80
2023-03-13T16:41:33.054Z,7.90
2023-03-13T16:44:02.909Z,10.80
2023-03-13T16:46:40.102Z,10.70
2023-03-13T16:49:14.000Z,12.30
2023-03-13T16:51:42.331Z,12.50
2023-03-13T16:54:12.185Z,12.80
2023-03-13T16:56:43.372Z,9.20
2023-03-13T16:59:21.627Z,9.30
2023-03-13T17:01:50.337Z,8.90
2023-03-13T17:04:18.828Z,8.50
2023-03-13T17:06:47.910Z,8.00
2023-03-13T17:09:17.786Z,10.30
2023-03-13T17:11:46.004Z,12.10
2023-03-13T17:14:14.203Z,12.20
2023-03-13T17:16:44.714Z,15.40
2023-03-13T17:19:14.496Z,13.40
2023-03-13T17:21:42.968Z,12.00
2023-03-13T17:24:11.343Z,10.00
2023-03-13T17:26:40.814Z,9.10
2023-03-13T17:29:15.973Z,9.70
2023-03-13T17:31:44.909Z,10.30
2023-03-13T17:34:13.189Z,11.80
2023-03-13T17:36:41.543Z,11.40
2023-03-13T17:39:13.109Z,8.50
2023-03-13T17:41:41.847Z,10.80
2023-03-13T17:44:10.086Z,12.40
2023-03-13T17:46:42.276Z,8.70
2023-03-13T17:51:46.229Z,11.70
2023-03-13T17:54:16.030Z,10.70
2023-03-13T17:56:45.390Z,10.10
2023-03-13T17:59:18.710Z,11.00
2023-03-13T18:01:47.045Z,11.40
2023-03-13T18:04:15.293Z,11.10
2023-03-13T18:06:46.153Z,11.70
2023-03-13T18:09:20.800Z,10.90
2023-03-13T18:11:49.913Z,15.50
2023-03-13T18:14:18.141Z,12.20
2023-03-13T18:16:48.334Z,11.70
2023-03-13T18:19:22.421Z,12.60
2023-03-13T18:21:53.765Z,13.10
2023-03-13T18:24:23.007Z,15.40
2023-03-13T18:26:51.440Z,14.90
2023-03-13T18:29:29.297Z,14.20
2023-03-13T18:32:00.499Z,9.60
2023-03-13T18:34:29.735Z,12.20
2023-03-13T18:37:04.132Z,12.30
2023-03-13T18:39:33.107Z,10.80
2023-03-13T18:42:02.220Z,10.00
2023-03-13T18:44:30.306Z,12.30
2023-03-13T18:46:58.816Z,11.00
2023-03-13T18:49:26.940Z,11.50
2023-03-13T18:51:55.853Z,12.10
2023-03-13T18:54:24.196Z,14.60
2023-03-13T18:56:52.280Z,12.40
2023-03-13T18:59:22.547Z,14.60
2023-03-13T19:01:51.272Z,14.20
2023-03-13T19:04:20.258Z,11.50
2023-03-13T19:06:48.524Z,12.80
2023-03-13T19:12:07.622Z,13.20
2023-03-13T19:14:35.890Z,10.70
2023-03-13T19:17:07.269Z,12.40
2023-03-13T19:19:35.473Z,12.70
2023-03-13T19:22:03.695Z,11.20
2023-03-13T19:24:32.111Z,13.90
2023-03-13T19:27:00.509Z,13.70
2023-03-13T19:29:29.125Z,12.80
2023-03-13T19:31:59.319Z,13.60
2023-03-13T19:34:27.596Z,13.40
2023-03-13T19:36:55.771Z,11.40
2023-03-13T19:39:25.686Z,12.20
2023-03-13T19:41:54.244Z,12.90
2023-03-13T19:44:22.403Z,12.70
2023-03-13T19:46:56.022Z,14.20
2023-03-13T19:49:24.164Z,13.20
2023-03-13T19:51:52.363Z,15.10
2023-03-13T19:54:20.529Z,14.00
2023-03-13T19:56:49.629Z,17.80
2023-03-13T19:59:20.865Z,15.10
2023-03-13T20:01:49.384Z,12.30
2023-03-13T20:04:17.502Z,11.50
2023-03-13T20:06:45.857Z,12.50
2023-03-13T20:09:17.176Z,14.10
2023-03-13T20:11:45.405Z,11.60
2023-03-13T20:14:13.492Z,16.60
2023-03-13T21:10:31.193Z,13.30
2023-03-13T21:12:59.346Z,11.80
2023-03-13T21:15:27.437Z,12.00
2023-03-13T21:17:56.545Z,11.60
2023-03-13T21:20:25.408Z,12.50
2023-03-13T21:22:53.847Z,12.30
2023-03-13T21:25:22.693Z,12.30
2023-03-13T21:27:50.820Z,15.10
2023-03-13T21:30:21.416Z,12.70
2023-03-13T21:32:49.574Z,15.70
2023-03-13T21:35:17.865Z,12.80
2023-03-13T21:37:45.994Z,14.50
2023-03-13T21:40:14.415Z,19.10
2023-03-13T21:42:42.649Z,13.20
2023-03-13T21:45:11.225Z,14.40
2023-03-13T21:47:39.504Z,13.80
2023-03-13T21:50:10.193Z,13.00
2023-03-13T21:52:41.308Z,14.40
2023-03-13T21:55:12.872Z,13.50
2023-03-13T21:57:41.290Z,12.00
2023-03-13T22:00:10.755Z,13.70
2023-03-13T22:02:38.972Z,12.50
2023-03-13T22:05:08.202Z,12.30
2023-03-13T22:07:36.936Z,13.20
2023-03-13T22:10:05.441Z,13.00
2023-03-13T22:12:34.004Z,12.10
2023-03-13T22:15:02.052Z,12.50
2023-03-13T22:17:30.204Z,12.90
2023-03-13T22:19:58.468Z,13.10
2023-03-13T22:22:26.664Z,11.90
2023-03-13T22:24:54.669Z,11.70
2023-03-13T22:27:24.288Z,12.40
2023-03-13T22:29:52.520Z,13.40
2023-03-13T22:32:20.646Z,13.10
2023-03-13T22:34:49.329Z,12.80
2023-03-13T22:37:19.731Z,13.30
2023-03-13T22:39:50.142Z,12.40
2023-03-13T22:42:18.267Z,10.40
2023-03-13T22:44:46.380Z,14.20
2023-03-13T22:47:14.667Z,13.40
2023-03-13T22:49:42.766Z,12.20
2023-03-13T22:52:10.794Z,12.30
2023-03-13T22:54:39.084Z,15.60
2023-03-13T22:57:07.207Z,11.20
2023-03-13T22:59:35.631Z,11.20
2023-03-13T23:02:04.081Z,15.60
2023-03-13T23:04:32.356Z,14.60
2023-03-13T23:07:00.469Z,11.80
2023-03-13T23:09:28.537Z,9.80
2023-03-13T23:11:56.720Z,11.90
2023-03-13T23:14:29.093Z,13.30
2023-03-13T23:16:57.864Z,15.50
2023-03-13T23:19:26.106Z,14.00
2023-03-13T23:21:54.608Z,10.90
2023-03-13T23:24:22.700Z,10.80
2023-03-13T23:26:50.830Z,10.70
2023-03-13T23:29:18.936Z,11.20
2023-03-13T23:31:47.036Z,14.50
2023-03-13T23:34:21.641Z,11.40
2023-03-13T23:36:49.923Z,11.30
2023-03-13T23:39:18.377Z,12.30
2023-03-13T23:41:46.505Z,13.70
2023-03-13T23:44:14.643Z,10.20
2023-03-13T23:46:42.697Z,10.20
2023-03-13T23:49:12.868Z,10.60
2023-03-13T23:51:41.102Z,13.20
2023-03-13T23:54:09.177Z,11.60
2023-03-13T23:56:37.405Z,9.80
2023-03-13T23:59:05.625Z,13.50
